sensor_id;sensor_type;location;lat;lon;timestamp;pressure;altitude;pressure_sealevel;temperature;humidity
37904;BME280;23738;50.422;18.758;2023-02-22T10:36:33;98609.27;;;7.55;89.09
37904;BME280;23738;50.422;18.758;2023-02-22T10:39:19;98608.01;;;7.63;89.35
37904;BME280;23738;50.422;18.758;2023-02-22T10:41:54;98606.93;;;7.69;88.91
37904;BME280;23738;50.422;18.758;2023-02-22T10:44:22;98610.93;;;7.74;88.90
37904;BME280;23738;50.422;18.758;2023-02-22T10:46:50;98610.70;;;7.76;88.22
37904;BME280;23738;50.422;18.758;2023-02-22T10:49:21;98610.04;;;7.77;88.45
37904;BME280;23738;50.422;18.758;2023-02-22T10:51:58;98609.55;;;7.84;87.99
37904;BME280;23738;50.422;18.758;2023-02-22T10:54:29;98607.05;;;7.83;87.70
37904;BME280;23738;50.422;18.758;2023-02-22T10:56:58;98607.31;;;7.84;87.43
37904;BME280;23738;50.422;18.758;2023-02-22T10:59:28;98604.78;;;7.82;87.27
37904;BME280;23738;50.422;18.758;2023-02-22T11:01:56;98605.14;;;7.84;87.49
37904;BME280;23738;50.422;18.758;2023-02-22T11:04:24;98608.17;;;7.93;87.34
37904;BME280;23738;50.422;18.758;2023-02-22T11:07:08;98601.20;;;8.00;87.43
37904;BME280;23738;50.422;18.758;2023-02-22T11:09:48;98599.07;;;8.13;87.30
37904;BME280;23738;50.422;18.758;2023-02-22T11:12:24;98594.64;;;8.24;86.64
37904;BME280;23738;50.422;18.758;2023-02-22T11:14:52;98591.57;;;8.35;86.72
37904;BME280;23738;50.422;18.758;2023-02-22T11:17:25;98591.08;;;8.48;86.44
37904;BME280;23738;50.422;18.758;2023-02-22T11:19:55;98591.30;;;8.63;86.64
37904;BME280;23738;50.422;18.758;2023-02-22T11:22:25;98588.45;;;8.76;86.30
37904;BME280;23738;50.422;18.758;2023-02-22T11:24:57;98586.77;;;8.83;85.86
37904;BME280;23738;50.422;18.758;2023-02-22T11:27:30;98586.23;;;8.92;85.78
37904;BME280;23738;50.422;18.758;2023-02-22T11:30:10;98582.14;;;8.95;84.96
37904;BME280;23738;50.422;18.758;2023-02-22T11:32:48;98580.16;;;8.94;84.81
37904;BME280;23738;50.422;18.758;2023-02-22T11:35:22;98579.33;;;8.97;84.94
37904;BME280;23738;50.422;18.758;2023-02-22T11:38:09;98577.64;;;9.01;85.11
37904;BME280;23738;50.422;18.758;2023-02-22T11:40:37;98577.21;;;9.04;83.80
37904;BME280;23738;50.422;18.758;2023-02-22T11:43:12;98577.52;;;8.93;83.37
37904;BME280;23738;50.422;18.758;2023-02-22T11:45:55;98571.70;;;8.87;83.09
37904;BME280;23738;50.422;18.758;2023-02-22T11:48:26;98576.04;;;8.79;82.19
37904;BME280;23738;50.422;18.758;2023-02-22T11:51:07;98574.70;;;8.74;82.43
37904;BME280;23738;50.422;18.758;2023-02-22T11:53:52;98574.59;;;8.75;82.80
37904;BME280;23738;50.422;18.758;2023-02-22T11:56:27;98579.31;;;8.78;82.78
37904;BME280;23738;50.422;18.758;2023-02-22T11:59:02;98573.98;;;8.83;83.04
37904;BME280;23738;50.422;18.758;2023-02-22T12:01:37;98572.42;;;8.90;82.89
37904;BME280;23738;50.422;18.758;2023-02-22T12:07:31;98570.55;;;9.02;83.06
37904;BME280;23738;50.422;18.758;2023-02-22T12:10:15;98566.45;;;9.05;82.86
37904;BME280;23738;50.422;18.758;2023-02-22T12:12:56;98568.70;;;9.13;82.58
37904;BME280;23738;50.422;18.758;2023-02-22T12:15:30;98567.17;;;9.22;82.29
37904;BME280;23738;50.422;18.758;2023-02-22T12:18:10;98566.00;;;9.19;81.21
37904;BME280;23738;50.422;18.758;2023-02-22T12:20:45;98564.91;;;9.13;81.15
37904;BME280;23738;50.422;18.758;2023-02-22T12:23:17;98565.04;;;9.11;80.77
37904;BME280;23738;50.422;18.758;2023-02-22T12:25:56;98566.17;;;9.06;80.38
37904;BME280;23738;50.422;18.758;2023-02-22T12:28:30;98565.21;;;9.04;80.08
37904;BME280;23738;50.422;18.758;2023-02-22T12:31:07;98568.61;;;9.03;80.26
37904;BME280;23738;50.422;18.758;2023-02-22T12:33:47;98565.54;;;9.12;80.77
37904;BME280;23738;50.422;18.758;2023-02-22T12:36:19;98560.73;;;9.23;80.82
37904;BME280;23738;50.422;18.758;2023-02-22T12:38:51;98560.27;;;9.27;80.40
37904;BME280;23738;50.422;18.758;2023-02-22T12:41:25;98561.48;;;9.30;80.32
37904;BME280;23738;50.422;18.758;2023-02-22T12:43:59;98564.27;;;9.29;79.82
37904;BME280;23738;50.422;18.758;2023-02-22T12:46:31;98561.90;;;9.25;79.97
37904;BME280;23738;50.422;18.758;2023-02-22T12:49:04;98565.98;;;9.28;80.12
37904;BME280;23738;50.422;18.758;2023-02-22T12:51:37;98561.73;;;9.32;80.19
37904;BME280;23738;50.422;18.758;2023-02-22T12:54:12;98558.08;;;9.36;80.45
37904;BME280;23738;50.422;18.758;2023-02-22T12:56:44;98553.55;;;9.37;80.15
37904;BME280;23738;50.422;18.758;2023-02-22T12:59:17;98556.05;;;9.40;79.40
37904;BME280;23738;50.422;18.758;2023-02-22T13:01:52;98550.46;;;9.38;79.51
37904;BME280;23738;50.422;18.758;2023-02-22T13:04:20;98550.01;;;9.40;79.57
37904;BME280;23738;50.422;18.758;2023-02-22T13:06:57;98553.49;;;9.42;79.10
37904;BME280;23738;50.422;18.758;2023-02-22T13:10:00;98550.36;;;9.43;79.24
37904;BME280;23738;50.422;18.758;2023-02-22T13:12:37;98550.43;;;9.44;78.67
37904;BME280;23738;50.422;18.758;2023-02-22T13:15:13;98552.05;;;9.38;78.22
37904;BME280;23738;50.422;18.758;2023-02-22T13:17:50;98550.05;;;9.37;78.51
37904;BME280;23738;50.422;18.758;2023-02-22T13:20:23;98548.27;;;9.37;77.73
37904;BME280;23738;50.422;18.758;2023-02-22T13:22:58;98546.29;;;9.32;77.92
37904;BME280;23738;50.422;18.758;2023-02-22T13:25:35;98551.35;;;9.28;77.90
37904;BME280;23738;50.422;18.758;2023-02-22T13:28:17;98545.46;;;9.26;78.12
37904;BME280;23738;50.422;18.758;2023-02-22T13:31:00;98549.36;;;9.26;78.21
37904;BME280;23738;50.422;18.758;2023-02-22T13:33:44;98550.63;;;9.28;78.04
37904;BME280;23738;50.422;18.758;2023-02-22T13:36:23;98552.89;;;9.31;77.91
37904;BME280;23738;50.422;18.758;2023-02-22T13:39:12;98553.31;;;9.29;77.61
37904;BME280;23738;50.422;18.758;2023-02-22T13:41:56;98551.75;;;9.26;77.93
37904;BME280;23738;50.422;18.758;2023-02-22T13:44:45;98555.98;;;9.28;77.71
37904;BME280;23738;50.422;18.758;2023-02-22T13:53:17;98551.79;;;9.16;76.99
37904;BME280;23738;50.422;18.758;2023-02-22T13:55:52;98550.60;;;9.10;76.80
37904;BME280;23738;50.422;18.758;2023-02-22T13:58:22;98552.33;;;9.05;76.67
37904;BME280;23738;50.422;18.758;2023-02-22T14:00:51;98549.70;;;8.99;76.63
37904;BME280;23738;50.422;18.758;2023-02-22T14:03:33;98551.04;;;8.97;76.72
37904;BME280;23738;50.422;18.758;2023-02-22T14:06:07;98551.31;;;8.93;76.71
37904;BME280;23738;50.422;18.758;2023-02-22T14:08:45;98549.00;;;8.90;76.53
37904;BME280;23738;50.422;18.758;2023-02-22T14:14:22;98547.52;;;8.89;76.74
37904;BME280;23738;50.422;18.758;2023-02-22T14:17:15;98546.59;;;8.93;76.73
37904;BME280;23738;50.422;18.758;2023-02-22T14:20:00;98543.92;;;8.94;76.55
37904;BME280;23738;50.422;18.758;2023-02-22T14:22:29;98548.95;;;8.92;76.42
37904;BME280;23738;50.422;18.758;2023-02-22T14:24:57;98548.30;;;8.92;76.35
37904;BME280;23738;50.422;18.758;2023-02-22T14:27:25;98547.94;;;8.93;76.22
37904;BME280;23738;50.422;18.758;2023-02-22T14:30:06;98551.34;;;8.98;76.03
37904;BME280;23738;50.422;18.758;2023-02-22T14:32:34;98553.87;;;9.05;75.98
37904;BME280;23738;50.422;18.758;2023-02-22T14:35:05;98550.42;;;9.14;76.04
37904;BME280;23738;50.422;18.758;2023-02-22T14:37:35;98554.55;;;9.25;75.81
37904;BME280;23738;50.422;18.758;2023-02-22T14:40:09;98549.30;;;9.24;75.72
37904;BME280;23738;50.422;18.758;2023-02-22T14:42:48;98551.34;;;9.21;75.76
37904;BME280;23738;50.422;18.758;2023-02-22T14:45:23;98550.36;;;9.14;75.31
37904;BME280;23738;50.422;18.758;2023-02-22T14:47:54;98552.59;;;9.06;75.20
37904;BME280;23738;50.422;18.758;2023-02-22T14:50:31;98550.98;;;8.98;75.08
37904;BME280;23738;50.422;18.758;2023-02-22T14:53:04;98555.08;;;8.90;75.04
37904;BME280;23738;50.422;18.758;2023-02-22T14:55:37;98557.52;;;8.82;74.84
37904;BME280;23738;50.422;18.758;2023-02-22T14:58:11;98562.17;;;8.74;74.72
37904;BME280;23738;50.422;18.758;2023-02-22T15:00:40;98563.17;;;8.66;74.88
37904;BME280;23738;50.422;18.758;2023-02-22T15:03:17;98561.46;;;8.62;74.68
37904;BME280;23738;50.422;18.758;2023-02-22T15:05:45;98556.38;;;8.56;74.76
37904;BME280;23738;50.422;18.758;2023-02-22T15:08:14;98559.95;;;8.53;74.67
37904;BME280;23738;50.422;18.758;2023-02-22T15:10:44;98556.08;;;8.48;74.68
37904;BME280;23738;50.422;18.758;2023-02-22T15:13:16;98556.08;;;8.48;74.65
37904;BME280;23738;50.422;18.758;2023-02-22T15:15:45;98554.78;;;8.51;74.56
37904;BME280;23738;50.422;18.758;2023-02-22T15:18:32;98551.94;;;8.54;74.42
37904;BME280;23738;50.422;18.758;2023-02-22T15:21:05;98552.63;;;8.55;74.46
37904;BME280;23738;50.422;18.758;2023-02-22T15:23:41;98552.71;;;8.54;74.25
37904;BME280;23738;50.422;18.758;2023-02-22T15:26:16;98551.05;;;8.54;74.14
37904;BME280;23738;50.422;18.758;2023-02-22T15:28:44;98547.66;;;8.51;73.81
37904;BME280;23738;50.422;18.758;2023-02-22T15:34:14;98547.04;;;8.33;73.58
37904;BME280;23738;50.422;18.758;2023-02-22T15:36:48;98543.71;;;8.21;73.50
37904;BME280;23738;50.422;18.758;2023-02-22T15:39:22;98546.69;;;8.13;73.56
37904;BME280;23738;50.422;18.758;2023-02-22T15:42:04;98544.14;;;8.03;73.36
37904;BME280;23738;50.422;18.758;2023-02-22T15:44:38;98541.70;;;7.90;73.22
37904;BME280;23738;50.422;18.758;2023-02-22T15:47:06;98543.86;;;7.78;73.13
37904;BME280;23738;50.422;18.758;2023-02-22T15:49:33;98542.62;;;7.66;72.95
37904;BME280;23738;50.422;18.758;2023-02-22T15:52:17;98541.70;;;7.53;72.96
37904;BME280;23738;50.422;18.758;2023-02-22T15:54:47;98549.16;;;7.39;72.91
37904;BME280;23738;50.422;18.758;2023-02-22T15:57:17;98549.05;;;7.26;73.10
37904;BME280;23738;50.422;18.758;2023-02-22T15:59:49;98550.48;;;7.14;73.19
37904;BME280;23738;50.422;18.758;2023-02-22T16:02:33;98551.84;;;7.05;73.13
37904;BME280;23738;50.422;18.758;2023-02-22T16:05:05;98552.30;;;6.99;73.10
37904;BME280;23738;50.422;18.758;2023-02-22T16:07:36;98552.48;;;6.89;73.15
37904;BME280;23738;50.422;18.758;2023-02-22T16:10:06;98552.00;;;6.76;72.98
37904;BME280;23738;50.422;18.758;2023-02-22T16:12:35;98559.77;;;6.67;72.97
37904;BME280;23738;50.422;18.758;2023-02-22T16:15:03;98562.02;;;6.58;72.77
37904;BME280;23738;50.422;18.758;2023-02-22T16:17:40;98568.16;;;6.45;72.87
37904;BME280;23738;50.422;18.758;2023-02-22T16:20:31;98569.37;;;6.33;72.70
37904;BME280;23738;50.422;18.758;2023-02-22T16:23:00;98568.34;;;6.21;72.64
37904;BME280;23738;50.422;18.758;2023-02-22T16:26:00;98570.72;;;6.08;72.79
37904;BME280;23738;50.422;18.758;2023-02-22T16:28:29;98570.79;;;5.97;73.13
37904;BME280;23738;50.422;18.758;2023-02-22T16:31:00;98570.13;;;5.89;72.91
37904;BME280;23738;50.422;18.758;2023-02-22T16:33:27;98573.75;;;5.83;72.75
37904;BME280;23738;50.422;18.758;2023-02-22T16:36:02;98571.05;;;5.77;72.79
37904;BME280;23738;50.422;18.758;2023-02-22T16:38:32;98572.08;;;5.71;72.92
37904;BME280;23738;50.422;18.758;2023-02-22T16:41:04;98576.25;;;5.66;73.19
37904;BME280;23738;50.422;18.758;2023-02-22T16:43:33;98574.98;;;5.59;73.29
37904;BME280;23738;50.422;18.758;2023-02-22T16:46:02;98574.55;;;5.52;73.05
37904;BME280;23738;50.422;18.758;2023-02-22T16:48:31;98576.36;;;5.43;73.20
37904;BME280;23738;50.422;18.758;2023-02-22T16:51:05;98580.30;;;5.34;73.18
37904;BME280;23738;50.422;18.758;2023-02-22T16:53:33;98585.11;;;5.23;73.22
37904;BME280;23738;50.422;18.758;2023-02-22T16:56:08;98583.86;;;5.11;72.97
37904;BME280;23738;50.422;18.758;2023-02-22T16:58:38;98583.42;;;4.95;73.14
37904;BME280;23738;50.422;18.758;2023-02-22T17:01:07;98586.55;;;4.82;73.20
37904;BME280;23738;50.422;18.758;2023-02-22T17:03:35;98587.30;;;4.72;73.12
37904;BME280;23738;50.422;18.758;2023-02-22T17:06:03;98589.10;;;4.61;72.93
37904;BME280;23738;50.422;18.758;2023-02-22T17:08:30;98591.98;;;4.54;73.00
37904;BME280;23738;50.422;18.758;2023-02-22T17:10:58;98589.95;;;4.47;73.22
37904;BME280;23738;50.422;18.758;2023-02-22T17:13:26;98591.55;;;4.40;73.07
37904;BME280;23738;50.422;18.758;2023-02-22T17:15:54;98591.58;;;4.33;73.22
37904;BME280;23738;50.422;18.758;2023-02-22T17:18:23;98586.81;;;4.25;73.15
37904;BME280;23738;50.422;18.758;2023-02-22T17:20:54;98586.05;;;4.17;73.34
37904;BME280;23738;50.422;18.758;2023-02-22T17:23:22;98583.86;;;4.10;73.42
37904;BME280;23738;50.422;18.758;2023-02-22T17:25:51;98586.05;;;4.00;73.35
37904;BME280;23738;50.422;18.758;2023-02-22T17:28:19;98585.34;;;3.90;73.31
37904;BME280;23738;50.422;18.758;2023-02-22T17:30:47;98585.27;;;3.81;73.29
37904;BME280;23738;50.422;18.758;2023-02-22T17:33:16;98589.41;;;3.72;73.31
37904;BME280;23738;50.422;18.758;2023-02-22T17:35:45;98589.98;;;3.63;73.19
37904;BME280;23738;50.422;18.758;2023-02-22T17:38:13;98592.29;;;3.58;73.39
37904;BME280;23738;50.422;18.758;2023-02-22T17:40:45;98594.66;;;3.57;73.28
37904;BME280;23738;50.422;18.758;2023-02-22T17:43:14;98591.30;;;3.54;73.52
37904;BME280;23738;50.422;18.758;2023-02-22T17:45:42;98596.23;;;3.50;73.36
37904;BME280;23738;50.422;18.758;2023-02-22T17:48:09;98597.11;;;3.43;73.52
37904;BME280;23738;50.422;18.758;2023-02-22T17:50:37;98601.13;;;3.36;73.50
37904;BME280;23738;50.422;18.758;2023-02-22T17:53:05;98602.25;;;3.28;73.45
37904;BME280;23738;50.422;18.758;2023-02-22T17:55:32;98600.13;;;3.20;73.56
37904;BME280;23738;50.422;18.758;2023-02-22T17:58:02;98597.15;;;3.11;73.74
37904;BME280;23738;50.422;18.758;2023-02-22T18:00:32;98600.45;;;3.04;73.60
37904;BME280;23738;50.422;18.758;2023-02-22T18:03:02;98600.11;;;2.95;73.36
37904;BME280;23738;50.422;18.758;2023-02-22T18:05:32;98601.77;;;2.87;73.55
37904;BME280;23738;50.422;18.758;2023-02-22T18:07:59;98602.20;;;2.82;73.53
37904;BME280;23738;50.422;18.758;2023-02-22T18:10:27;98601.40;;;2.78;73.57
37904;BME280;23738;50.422;18.758;2023-02-22T18:12:54;98604.05;;;2.76;73.68
37904;BME280;23738;50.422;18.758;2023-02-22T18:15:22;98603.73;;;2.74;73.77
37904;BME280;23738;50.422;18.758;2023-02-22T18:17:54;98603.25;;;2.72;73.86
37904;BME280;23738;50.422;18.758;2023-02-22T18:20:22;98606.27;;;2.67;73.78
37904;BME280;23738;50.422;18.758;2023-02-22T18:22:57;98608.44;;;2.60;74.02
37904;BME280;23738;50.422;18.758;2023-02-22T18:25:25;98608.01;;;2.59;74.01
37904;BME280;23738;50.422;18.758;2023-02-22T18:27:53;98609.87;;;2.59;73.95
37904;BME280;23738;50.422;18.758;2023-02-22T18:30:21;98609.42;;;2.58;74.37
37904;BME280;23738;50.422;18.758;2023-02-22T18:32:50;98611.36;;;2.58;74.32
37904;BME280;23738;50.422;18.758;2023-02-22T18:35:18;98610.84;;;2.62;74.33
37904;BME280;23738;50.422;18.758;2023-02-22T18:37:45;98608.77;;;2.65;74.32
37904;BME280;23738;50.422;18.758;2023-02-22T18:40:12;98609.54;;;2.68;74.31
37904;BME280;23738;50.422;18.758;2023-02-22T18:42:39;98613.15;;;2.70;74.50
37904;BME280;23738;50.422;18.758;2023-02-22T18:45:08;98611.59;;;2.72;74.60
37904;BME280;23738;50.422;18.758;2023-02-22T18:47:41;98610.44;;;2.73;74.58
37904;BME280;23738;50.422;18.758;2023-02-22T18:50:10;98603.11;;;2.68;74.80
37904;BME280;23738;50.422;18.758;2023-02-22T18:52:38;98608.23;;;2.74;74.88
37904;BME280;23738;50.422;18.758;2023-02-22T18:55:16;98603.70;;;2.75;75.08
37904;BME280;23738;50.422;18.758;2023-02-22T18:57:44;98601.89;;;2.73;74.97
37904;BME280;23738;50.422;18.758;2023-02-22T19:00:15;98600.27;;;2.74;74.95
37904;BME280;23738;50.422;18.758;2023-02-22T19:02:43;98600.27;;;2.72;74.93
37904;BME280;23738;50.422;18.758;2023-02-22T19:05:11;98605.10;;;2.71;74.63
37904;BME280;23738;50.422;18.758;2023-02-22T19:07:38;98607.80;;;2.70;74.82
37904;BME280;23738;50.422;18.758;2023-02-22T19:10:07;98606.23;;;2.66;75.01
37904;BME280;23738;50.422;18.758;2023-02-22T19:12:35;98606.65;;;2.62;75.04
37904;BME280;23738;50.422;18.758;2023-02-22T19:15:02;98604.06;;;2.56;74.92
37904;BME280;23738;50.422;18.758;2023-02-22T19:17:30;98602.71;;;2.49;74.94
37904;BME280;23738;50.422;18.758;2023-02-22T19:19:58;98607.71;;;2.44;75.22
37904;BME280;23738;50.422;18.758;2023-02-22T19:22:25;98604.96;;;2.40;75.42
37904;BME280;23738;50.422;18.758;2023-02-22T19:24:58;98604.09;;;2.34;75.26
37904;BME280;23738;50.422;18.758;2023-02-22T19:27:27;98602.15;;;2.27;75.27
37904;BME280;23738;50.422;18.758;2023-02-22T19:29:56;98598.75;;;2.24;75.36
37904;BME280;23738;50.422;18.758;2023-02-22T19:32:23;98601.25;;;2.22;74.98
37904;BME280;23738;50.422;18.758;2023-02-22T19:34:51;98605.27;;;2.20;75.19
37904;BME280;23738;50.422;18.758;2023-02-22T19:37:19;98600.73;;;2.18;75.35
37904;BME280;23738;50.422;18.758;2023-02-22T19:39:48;98600.66;;;2.14;75.44
37904;BME280;23738;50.422;18.758;2023-02-22T19:42:15;98604.96;;;2.07;75.39
37904;BME280;23738;50.422;18.758;2023-02-22T19:44:42;98601.48;;;2.02;75.38
37904;BME280;23738;50.422;18.758;2023-02-22T19:47:10;98603.14;;;1.95;75.21
37904;BME280;23738;50.422;18.758;2023-02-22T19:49:37;98605.65;;;1.85;75.20
37904;BME280;23738;50.422;18.758;2023-02-22T19:52:06;98612.52;;;1.78;75.35
37904;BME280;23738;50.422;18.758;2023-02-22T19:54:33;98613.58;;;1.76;75.41
37904;BME280;23738;50.422;18.758;2023-02-22T19:57:01;98613.81;;;1.74;75.28
37904;BME280;23738;50.422;18.758;2023-02-22T19:59:28;98617.02;;;1.71;75.57
37904;BME280;23738;50.422;18.758;2023-02-22T20:01:55;98615.08;;;1.72;75.36
37904;BME280;23738;50.422;18.758;2023-02-22T20:04:23;98615.46;;;1.73;75.50
37904;BME280;23738;50.422;18.758;2023-02-22T20:06:52;98617.09;;;1.74;75.62
37904;BME280;23738;50.422;18.758;2023-02-22T20:09:21;98615.33;;;1.73;75.53
37904;BME280;23738;50.422;18.758;2023-02-22T20:11:50;98619.67;;;1.70;75.73
37904;BME280;23738;50.422;18.758;2023-02-22T20:14:21;98621.15;;;1.66;75.67
37904;BME280;23738;50.422;18.758;2023-02-22T20:16:49;98622.13;;;1.61;75.81
37904;BME280;23738;50.422;18.758;2023-02-22T20:19:17;98621.45;;;1.57;75.98
37904;BME280;23738;50.422;18.758;2023-02-22T20:21:44;98621.55;;;1.52;75.55
37904;BME280;23738;50.422;18.758;2023-02-22T20:24:12;98622.17;;;1.47;75.50
37904;BME280;23738;50.422;18.758;2023-02-22T20:26:41;98622.98;;;1.42;75.67
37904;BME280;23738;50.422;18.758;2023-02-22T20:29:09;98628.17;;;1.44;75.59
37904;BME280;23738;50.422;18.758;2023-02-22T20:31:37;98624.86;;;1.40;75.82
37904;BME280;23738;50.422;18.758;2023-02-22T20:34:05;98625.63;;;1.38;75.67
37904;BME280;23738;50.422;18.758;2023-02-22T20:36:33;98624.05;;;1.32;75.81
37904;BME280;23738;50.422;18.758;2023-02-22T20:39:01;98620.20;;;1.23;75.76
37904;BME280;23738;50.422;18.758;2023-02-22T20:41:30;98619.96;;;1.18;75.75
37904;BME280;23738;50.422;18.758;2023-02-22T20:43:59;98617.71;;;1.12;75.85
37904;BME280;23738;50.422;18.758;2023-02-22T20:46:28;98622.38;;;1.09;75.90
37904;BME280;23738;50.422;18.758;2023-02-22T20:48:58;98622.45;;;1.06;75.89
37904;BME280;23738;50.422;18.758;2023-02-22T20:51:26;98612.77;;;1.06;75.73
37904;BME280;23738;50.422;18.758;2023-02-22T20:53:56;98614.43;;;1.08;75.80
37904;BME280;23738;50.422;18.758;2023-02-22T20:56:27;98611.48;;;1.10;75.93
37904;BME280;23738;50.422;18.758;2023-02-22T20:58:57;98605.55;;;1.09;75.80
37904;BME280;23738;50.422;18.758;2023-02-22T21:01:25;98608.05;;;1.08;75.91
37904;BME280;23738;50.422;18.758;2023-02-22T21:03:53;98603.80;;;1.07;76.14
37904;BME280;23738;50.422;18.758;2023-02-22T21:06:21;98602.86;;;1.05;76.21
37904;BME280;23738;50.422;18.758;2023-02-22T21:08:51;98608.34;;;1.04;76.22
37904;BME280;23738;50.422;18.758;2023-02-22T21:11:20;98607.65;;;1.03;76.39
37904;BME280;23738;50.422;18.758;2023-02-22T21:13:48;98602.06;;;1.01;76.25
37904;BME280;23738;50.422;18.758;2023-02-22T21:16:19;98607.13;;;1.03;76.19
37904;BME280;23738;50.422;18.758;2023-02-22T21:18:50;98609.06;;;1.06;76.32
37904;BME280;23738;50.422;18.758;2023-02-22T21:21:17;98610.15;;;1.11;76.36
37904;BME280;23738;50.422;18.758;2023-02-22T21:23:48;98610.64;;;1.14;76.23
37904;BME280;23738;50.422;18.758;2023-02-22T21:26:17;98609.14;;;1.15;76.67
37904;BME280;23738;50.422;18.758;2023-02-22T21:28:45;98608.38;;;1.16;76.59
37904;BME280;23738;50.422;18.758;2023-02-22T21:31:12;98605.69;;;1.15;76.58
37904;BME280;23738;50.422;18.758;2023-02-22T21:33:40;98604.32;;;1.14;76.69
37904;BME280;23738;50.422;18.758;2023-02-22T21:36:10;98602.98;;;1.12;76.44
37904;BME280;23738;50.422;18.758;2023-02-22T21:38:39;98600.60;;;1.08;76.53
37904;BME280;23738;50.422;18.758;2023-02-22T21:41:09;98597.95;;;1.08;76.62
37904;BME280;23738;50.422;18.758;2023-02-22T21:43:37;98596.02;;;1.09;76.63
37904;BME280;23738;50.422;18.758;2023-02-22T21:46:06;98593.83;;;1.12;76.82
37904;BME280;23738;50.422;18.758;2023-02-22T21:48:37;98594.36;;;1.16;76.76
37904;BME280;23738;50.422;18.758;2023-02-22T21:51:10;98593.83;;;1.13;76.77
37904;BME280;23738;50.422;18.758;2023-02-22T21:53:42;98589.23;;;1.11;76.69
37904;BME280;23738;50.422;18.758;2023-02-22T21:56:12;98590.91;;;1.08;76.84
37904;BME280;23738;50.422;18.758;2023-02-22T21:58:41;98589.94;;;1.05;76.83
37904;BME280;23738;50.422;18.758;2023-02-22T22:01:09;98590.80;;;1.03;76.61
37904;BME280;23738;50.422;18.758;2023-02-22T22:03:43;98587.46;;;1.00;76.75
37904;BME280;23738;50.422;18.758;2023-02-22T22:06:11;98592.36;;;1.03;76.86
37904;BME280;23738;50.422;18.758;2023-02-22T22:08:40;98587.84;;;1.07;76.91
37904;BME280;23738;50.422;18.758;2023-02-22T22:11:09;98592.17;;;1.09;76.99
37904;BME280;23738;50.422;18.758;2023-02-22T22:13:39;98593.18;;;1.07;76.90
37904;BME280;23738;50.422;18.758;2023-02-22T22:16:08;98592.81;;;1.05;76.83
37904;BME280;23738;50.422;18.758;2023-02-22T22:18:37;98593.77;;;1.04;76.99
37904;BME280;23738;50.422;18.758;2023-02-22T22:21:07;98585.67;;;1.04;77.08
37904;BME280;23738;50.422;18.758;2023-02-22T22:23:37;98584.97;;;1.00;76.91
37904;BME280;23738;50.422;18.758;2023-02-22T22:26:05;98584.38;;;0.96;77.08
37904;BME280;23738;50.422;18.758;2023-02-22T22:28:38;98584.40;;;0.93;77.02
37904;BME280;23738;50.422;18.758;2023-02-22T22:31:07;98579.29;;;0.92;77.10
37904;BME280;23738;50.422;18.758;2023-02-22T22:33:36;98574.88;;;0.95;76.93
37904;BME280;23738;50.422;18.758;2023-02-22T22:36:07;98570.12;;;0.96;76.99
37904;BME280;23738;50.422;18.758;2023-02-22T22:38:35;98574.70;;;0.97;77.03
37904;BME280;23738;50.422;18.758;2023-02-22T22:41:04;98574.36;;;0.97;77.22
37904;BME280;23738;50.422;18.758;2023-02-22T22:43:33;98574.63;;;0.96;77.12
37904;BME280;23738;50.422;18.758;2023-02-22T22:46:02;98574.25;;;0.95;77.08
37904;BME280;23738;50.422;18.758;2023-02-22T22:48:31;98573.09;;;0.92;77.31
37904;BME280;23738;50.422;18.758;2023-02-22T22:51:05;98569.67;;;0.88;77.32
37904;BME280;23738;50.422;18.758;2023-02-22T22:53:33;98571.46;;;0.83;77.16
37904;BME280;23738;50.422;18.758;2023-02-22T22:56:01;98574.06;;;0.80;77.12
37904;BME280;23738;50.422;18.758;2023-02-22T22:58:34;98573.40;;;0.79;77.11
37904;BME280;23738;50.422;18.758;2023-02-22T23:01:02;98573.96;;;0.80;77.28
37904;BME280;23738;50.422;18.758;2023-02-22T23:03:32;98573.15;;;0.84;77.37
37904;BME280;23738;50.422;18.758;2023-02-22T23:06:03;98571.94;;;0.85;77.53
37904;BME280;23738;50.422;18.758;2023-02-22T23:08:31;98573.34;;;0.85;77.39
37904;BME280;23738;50.422;18.758;2023-02-22T23:11:09;98574.19;;;0.84;77.62
37904;BME280;23738;50.422;18.758;2023-02-22T23:13:36;98574.48;;;0.82;77.48
37904;BME280;23738;50.422;18.758;2023-02-22T23:16:07;98579.66;;;0.81;77.50
37904;BME280;23738;50.422;18.758;2023-02-22T23:18:38;98579.64;;;0.77;77.58
37904;BME280;23738;50.422;18.758;2023-02-22T23:21:09;98577.47;;;0.75;77.63
37904;BME280;23738;50.422;18.758;2023-02-22T23:23:36;98575.26;;;0.75;77.50
37904;BME280;23738;50.422;18.758;2023-02-22T23:26:06;98575.61;;;0.75;77.48
37904;BME280;23738;50.422;18.758;2023-02-22T23:28:38;98575.80;;;0.77;77.76
37904;BME280;23738;50.422;18.758;2023-02-22T23:31:07;98575.73;;;0.76;77.76
37904;BME280;23738;50.422;18.758;2023-02-22T23:33:35;98578.59;;;0.75;77.86
37904;BME280;23738;50.422;18.758;2023-02-22T23:36:06;98580.39;;;0.74;77.89
37904;BME280;23738;50.422;18.758;2023-02-22T23:38:33;98581.36;;;0.71;77.84
37904;BME280;23738;50.422;18.758;2023-02-22T23:41:02;98580.95;;;0.70;77.93
37904;BME280;23738;50.422;18.758;2023-02-22T23:43:30;98579.04;;;0.70;77.85
37904;BME280;23738;50.422;18.758;2023-02-22T23:46:01;98579.61;;;0.71;77.92
37904;BME280;23738;50.422;18.758;2023-02-22T23:48:29;98581.13;;;0.73;77.99
37904;BME280;23738;50.422;18.758;2023-02-22T23:50:56;98581.96;;;0.76;78.22
37904;BME280;23738;50.422;18.758;2023-02-22T23:53:25;98581.24;;;0.76;78.20
37904;BME280;23738;50.422;18.758;2023-02-22T23:55:55;98577.58;;;0.74;78.29
37904;BME280;23738;50.422;18.758;2023-02-22T23:58:23;98579.80;;;0.75;78.45
